Terminal Aerodrome Forecast
Issued by NWS

Current Version | Previous Version | Text Only | Print | Product List | Glossary On
Versions: 1 2 3 4 5 6 7 8 9 10 11 12
000
FTUS44 KEPZ 260544
TAFTCS
TAF
KTCS 260544Z 2606/2706 04012KT P6SM SCT050 BKN080
     FM260900 04025G35KT P6SM VCSH SCT020 BKN040 OVC080
     FM261700 07015G25KT P6SM SCT025 BKN040 BKN080
     FM270000 08006KT P6SM BKN250=

USA.gov is the U.S. government's official web portal to all federal, state and local government web resources and services.